createdAt,value
2022-10-13T00:02:32.413Z,15.02
2022-10-13T00:07:33.640Z,14.85
2022-10-13T00:12:36.148Z,14.73
2022-10-13T00:17:37.809Z,14.32
2022-10-13T00:22:39.106Z,15.07
2022-10-13T00:27:40.394Z,13.45
2022-10-13T00:32:41.712Z,13.45
2022-10-13T00:37:42.964Z,14.40
2022-10-13T00:42:44.220Z,14.55
2022-10-13T00:47:49.871Z,13.52
2022-10-13T00:52:53.047Z,13.68
2022-10-13T00:57:55.994Z,12.40
2022-10-13T01:02:57.474Z,12.93
2022-10-13T01:07:59.556Z,14.35
2022-10-13T01:13:09.915Z,12.98
2022-10-13T01:18:34.702Z,12.88
2022-10-13T01:23:56.399Z,13.13
2022-10-13T01:29:37.008Z,13.70
2022-10-13T01:34:53.336Z,13.25
2022-10-13T01:40:17.913Z,13.10
2022-10-13T01:45:23.849Z,13.50
2022-10-13T01:50:26.418Z,13.35
2022-10-13T01:55:29.579Z,13.45
2022-10-13T02:00:37.484Z,12.75
2022-10-13T02:05:49.387Z,13.05
2022-10-13T02:10:58.729Z,12.50
2022-10-13T02:16:01.348Z,13.52
2022-10-13T02:21:04.008Z,13.95
2022-10-13T02:26:05.551Z,14.02
2022-10-13T02:31:08.365Z,12.50
2022-10-13T02:36:09.794Z,13.20
2022-10-13T02:41:11.938Z,13.43
2022-10-13T02:46:13.205Z,14.15
2022-10-13T02:51:14.476Z,13.70
2022-10-13T02:56:15.938Z,14.25
2022-10-13T03:01:17.261Z,15.27
2022-10-13T03:06:18.666Z,15.05
2022-10-13T03:11:19.924Z,14.73
2022-10-13T03:16:21.264Z,13.60
2022-10-13T03:21:23.297Z,13.80
2022-10-13T03:26:24.669Z,12.25
2022-10-13T03:31:26.140Z,12.02
2022-10-13T03:36:27.400Z,11.75
2022-10-13T03:41:28.673Z,12.43
2022-10-13T03:46:30.498Z,14.43
2022-10-13T03:51:31.900Z,13.65
2022-10-13T03:56:33.261Z,13.05
2022-10-13T04:01:34.600Z,13.00
2022-10-13T04:06:35.937Z,12.40
2022-10-13T04:11:37.340Z,12.85
2022-10-13T04:16:40.312Z,12.60
2022-10-13T04:21:42.952Z,13.73
2022-10-13T04:26:45.095Z,11.77
2022-10-13T04:31:46.387Z,12.02
2022-10-13T04:36:51.164Z,12.93
2022-10-13T04:41:52.406Z,12.60
2022-10-13T04:46:53.696Z,13.93
2022-10-13T04:51:54.964Z,14.07
2022-10-13T04:56:56.213Z,13.23
2022-10-13T05:01:57.482Z,12.50
2022-10-13T05:07:16.872Z,12.35
2022-10-13T05:12:19.480Z,13.52
2022-10-13T05:17:20.917Z,12.05
2022-10-13T05:22:22.596Z,11.88
2022-10-13T05:27:24.090Z,10.80
2022-10-13T05:32:25.374Z,10.90
2022-10-13T05:37:26.716Z,12.15
2022-10-13T05:42:29.961Z,12.13
2022-10-13T05:47:31.250Z,12.82
2022-10-13T05:52:33.513Z,12.10
2022-10-13T05:57:40.995Z,12.70
2022-10-13T06:03:18.062Z,13.20
2022-10-13T06:08:19.378Z,14.90
2022-10-13T06:13:20.714Z,13.30
2022-10-13T06:18:22.228Z,13.60
2022-10-13T06:23:24.047Z,13.52
2022-10-13T06:28:27.123Z,14.05
2022-10-13T06:33:28.406Z,13.13
2022-10-13T06:38:29.936Z,13.05
2022-10-13T06:43:39.699Z,15.95
2022-10-13T06:48:41.528Z,14.50
2022-10-13T06:53:42.926Z,13.52
2022-10-13T06:58:44.196Z,12.75
2022-10-13T07:03:50.598Z,12.60
2022-10-13T07:08:51.937Z,11.93
2022-10-13T07:13:54.128Z,13.85
2022-10-13T07:18:55.392Z,16.77
2022-10-13T07:23:56.738Z,15.90
2022-10-13T07:28:58.206Z,15.85
2022-10-13T07:34:00.028Z,16.30
2022-10-13T07:39:03.070Z,15.48
2022-10-13T07:44:04.626Z,14.70
2022-10-13T07:49:05.929Z,15.07
2022-10-13T07:54:07.214Z,14.55
2022-10-13T07:59:08.901Z,15.23
2022-10-13T08:04:10.250Z,14.75
2022-10-13T08:09:11.684Z,15.02
2022-10-13T08:14:13.329Z,15.40
2022-10-13T08:19:15.941Z,16.30
2022-10-13T08:24:18.081Z,16.25
2022-10-13T08:29:22.403Z,16.13
2022-10-13T08:34:25.719Z,15.30
2022-10-13T08:39:27.032Z,15.60
2022-10-13T08:50:13.215Z,16.98
2022-10-13T08:55:26.867Z,17.50
2022-10-13T09:00:29.465Z,18.40
2022-10-13T09:05:45.301Z,18.30
2022-10-13T09:10:49.138Z,19.17
2022-10-13T09:15:50.492Z,18.77
2022-10-13T09:21:08.392Z,21.02
2022-10-13T09:26:21.195Z,20.40
2022-10-13T09:31:28.852Z,21.30
2022-10-13T09:36:31.168Z,22.48
2022-10-13T09:41:33.626Z,22.42
2022-10-13T09:46:48.138Z,22.40
2022-10-13T09:57:05.760Z,21.35
2022-10-13T10:02:37.594Z,22.67
2022-10-13T10:07:38.862Z,23.40
2022-10-13T10:12:41.957Z,21.90
2022-10-13T10:17:51.923Z,21.88
2022-10-13T10:23:06.509Z,21.73
2022-10-13T10:28:07.766Z,22.05
2022-10-13T10:33:19.162Z,20.30
2022-10-13T10:38:47.436Z,21.30
2022-10-13T10:44:21.279Z,21.33
2022-10-13T10:49:30.944Z,22.13
2022-10-13T10:54:49.517Z,19.13
2022-10-13T10:59:59.359Z,20.67
2022-10-13T11:05:05.290Z,18.73
2022-10-13T11:10:13.961Z,20.52
2022-10-13T11:15:21.346Z,19.00
2022-10-13T11:20:24.920Z,18.25
2022-10-13T11:25:47.171Z,19.25
2022-10-13T11:30:55.588Z,19.90
2022-10-13T11:35:57.096Z,18.83
2022-10-13T11:41:21.566Z,17.88
2022-10-13T11:46:34.992Z,17.65
2022-10-13T11:51:48.276Z,17.53
2022-10-13T11:56:53.254Z,15.83
2022-10-13T12:01:59.098Z,16.48
2022-10-13T12:07:03.301Z,16.17
2022-10-13T12:12:13.992Z,15.45
2022-10-13T12:17:43.979Z,14.32
2022-10-13T12:22:49.377Z,14.25
2022-10-13T12:27:57.764Z,12.52
2022-10-13T12:33:00.933Z,11.57
2022-10-13T12:38:07.353Z,11.37
2022-10-13T12:43:16.727Z,10.20
2022-10-13T12:48:37.263Z,11.45
2022-10-13T12:53:39.279Z,11.65
2022-10-13T12:58:43.522Z,11.63
2022-10-13T13:03:44.799Z,13.23
2022-10-13T13:08:46.245Z,12.90
2022-10-13T13:13:47.766Z,13.52
2022-10-13T13:18:50.632Z,13.13
2022-10-13T13:23:54.002Z,12.90
2022-10-13T13:28:56.355Z,13.68
2022-10-13T13:33:57.779Z,12.13
2022-10-13T13:38:59.170Z,13.73
2022-10-13T13:44:01.007Z,13.07
2022-10-13T13:49:02.772Z,13.65
2022-10-13T13:54:04.881Z,12.98
2022-10-13T13:59:06.230Z,13.25
2022-10-13T14:04:07.618Z,12.05
2022-10-13T14:09:08.990Z,12.60
2022-10-13T14:14:10.388Z,13.23
2022-10-13T14:19:11.707Z,14.38
2022-10-13T14:24:13.361Z,13.15
2022-10-13T14:29:14.765Z,14.98
2022-10-13T14:34:16.133Z,13.90
2022-10-13T14:39:17.435Z,12.95
2022-10-13T14:44:18.833Z,13.65
2022-10-13T14:49:20.204Z,13.90
2022-10-13T14:54:21.480Z,13.50
2022-10-13T14:59:22.725Z,13.38
2022-10-13T15:04:24.136Z,13.70
2022-10-13T15:09:33.579Z,13.18
2022-10-13T15:14:46.658Z,12.98
2022-10-13T15:19:47.932Z,13.32
2022-10-13T15:24:49.402Z,13.38
2022-10-13T15:29:50.695Z,13.18
2022-10-13T15:34:52.051Z,13.77
2022-10-13T15:39:57.359Z,13.00
2022-10-13T15:45:14.517Z,12.52
2022-10-13T15:50:15.947Z,12.88
2022-10-13T15:55:17.497Z,12.98
2022-10-13T16:00:19.000Z,13.65
2022-10-13T16:05:20.429Z,14.25
2022-10-13T16:10:22.009Z,15.00
2022-10-13T16:15:23.303Z,15.27
2022-10-13T16:20:24.613Z,15.45
2022-10-13T16:25:26.031Z,16.73
2022-10-13T16:30:27.785Z,17.23
2022-10-13T16:35:29.061Z,16.15
2022-10-13T16:40:30.873Z,17.70
2022-10-13T16:45:55.171Z,19.77
2022-10-13T16:50:53.864Z,20.63
2022-10-13T16:55:55.127Z,22.10
2022-10-13T17:01:10.898Z,21.58
2022-10-13T17:06:13.993Z,20.10
2022-10-13T17:11:18.568Z,21.05
2022-10-13T17:16:20.098Z,21.30
2022-10-13T17:21:22.066Z,22.83
2022-10-13T17:26:23.684Z,21.95
2022-10-13T17:31:25.068Z,22.73
2022-10-13T17:36:28.951Z,23.48
2022-10-13T17:41:30.191Z,21.83
2022-10-13T17:46:38.000Z,21.63
2022-10-13T17:51:41.542Z,23.42
2022-10-13T17:56:43.513Z,25.58
2022-10-13T18:01:45.222Z,23.67
2022-10-13T18:06:47.017Z,23.30
2022-10-13T18:11:50.978Z,20.95
2022-10-13T18:16:53.130Z,20.30
2022-10-13T18:21:54.412Z,19.88
2022-10-13T18:26:55.646Z,19.88
2022-10-13T18:31:56.888Z,21.92
2022-10-13T18:36:58.338Z,19.92
2022-10-13T18:41:59.913Z,21.02
2022-10-13T18:47:01.515Z,21.42
2022-10-13T18:52:02.876Z,22.88
2022-10-13T18:57:04.163Z,20.02
2022-10-13T19:02:05.453Z,20.77
2022-10-13T19:07:06.701Z,22.27
2022-10-13T19:12:08.176Z,22.13
2022-10-13T19:17:09.409Z,23.10
2022-10-13T19:22:10.778Z,19.95
2022-10-13T19:27:12.037Z,22.48
2022-10-13T19:32:13.284Z,23.58
2022-10-13T19:37:16.269Z,23.17
2022-10-13T19:42:17.651Z,21.63
2022-10-13T19:47:19.416Z,23.08
2022-10-13T19:52:21.002Z,22.30
2022-10-13T19:57:22.678Z,20.48
2022-10-13T20:02:24.229Z,20.98
2022-10-13T20:07:25.506Z,17.27
2022-10-13T20:12:26.756Z,16.10
2022-10-13T20:17:28.115Z,16.02
2022-10-13T20:22:29.701Z,16.17
2022-10-13T20:27:30.988Z,15.65
2022-10-13T20:32:32.521Z,16.90
2022-10-13T20:37:33.970Z,15.63
2022-10-13T20:42:35.247Z,16.92
2022-10-13T20:47:36.483Z,16.70
2022-10-13T20:52:37.867Z,14.90
2022-10-13T20:57:39.125Z,13.85
2022-10-13T21:02:40.455Z,14.30
2022-10-13T21:07:42.072Z,13.68
2022-10-13T21:12:43.345Z,13.20
2022-10-13T21:17:44.671Z,12.35
2022-10-13T21:22:47.138Z,13.35
2022-10-13T21:27:48.412Z,11.30
2022-10-13T21:32:49.715Z,12.35
2022-10-13T21:37:51.027Z,11.02
2022-10-13T21:42:52.304Z,12.48
2022-10-13T21:47:53.616Z,12.18
2022-10-13T21:52:54.918Z,12.95
2022-10-13T21:57:58.823Z,12.45
2022-10-13T22:03:02.964Z,12.07
2022-10-13T22:08:04.410Z,12.57
2022-10-13T22:13:05.736Z,13.95
2022-10-13T22:18:07.045Z,15.27
2022-10-13T22:23:08.359Z,13.85
2022-10-13T22:28:09.612Z,15.02
2022-10-13T22:33:11.007Z,15.05
2022-10-13T22:38:14.043Z,14.10
2022-10-13T22:43:15.314Z,14.15
2022-10-13T22:48:16.806Z,14.10
2022-10-13T22:53:18.077Z,14.32
2022-10-13T22:58:19.332Z,15.15
2022-10-13T23:03:20.647Z,14.52
2022-10-13T23:08:22.096Z,14.93
2022-10-13T23:13:24.003Z,16.10
2022-10-13T23:18:25.296Z,16.77
2022-10-13T23:23:27.075Z,16.73
2022-10-13T23:28:28.572Z,17.17
2022-10-13T23:33:30.774Z,17.63
2022-10-13T23:38:32.673Z,16.77
2022-10-13T23:43:34.049Z,18.10
2022-10-13T23:48:35.335Z,15.85
2022-10-13T23:53:38.510Z,17.17
2022-10-13T23:58:42.027Z,17.00
